| Date | Time | Temp. (oF) | Dew Point (oF) | Rel. Hum. (%) | Press. (in.) | Wind Dir. | Wind Speed (mph) | Hourly Rainfall (in.) |
|
|---|---|---|---|---|---|---|---|---|---|
| 1 | 11/23 | 00:00 | 25 | 17 | 74 | 30.44 | W | 2 | 0.00 |
| 2 | 11/22 | 23:00 | 25 | 18 | 77 | 30.45 | W | 1 | 0.00 |
| 3 | 11/22 | 22:00 | 25 | 20 | 83 | 30.45 | WSW | 4 | 0.00 |
| 4 | 11/22 | 21:00 | 23 | 21 | 92 | 30.45 | SW | 2 | 0.00 |
| 5 | 11/22 | 20:00 | 26 | 23 | 89 | 30.44 | WSW | 1 | 0.00 |
| 6 | 11/22 | 19:00 | 27 | 23 | 88 | 30.44 | NNW | 1 | 0.00 |
| 7 | 11/22 | 18:00 | 28 | 24 | 86 | 30.45 | NNW | 4 | 0.00 |
| 8 | 11/22 | 17:00 | 29 | 20 | 69 | 30.43 | WNW | 9 | 0.00 |
| 9 | 11/22 | 16:00 | 30 | 18 | 63 | 30.41 | N | 4 | 0.00 |
| 10 | 11/22 | 15:00 | 31 | 19 | 61 | 30.39 | NNW | 13 | 0.00 |
| 11 | 11/22 | 14:00 | 31 | 19 | 62 | 30.39 | NNW | 7 | 0.00 |
| 12 | 11/22 | 13:00 | 33 | 20 | 59 | 30.39 | WNW | 11 | 0.00 |
| 13 | 11/22 | 12:00 | 32 | 21 | 66 | 30.41 | NW | 3 | 0.00 |
| 14 | 11/22 | 11:00 | 29 | 20 | 69 | 30.43 | NW | 11 | 0.00 |
| 15 | 11/22 | 10:00 | 28 | 20 | 73 | 30.44 | WNW | 9 | 0.00 |
| 16 | 11/22 | 09:00 | 28 | 20 | 72 | 30.44 | NNW | 9 | 0.00 |
| 17 | 11/22 | 08:00 | 23 | 17 | 79 | 30.43 | SSW | 2 | 0.00 |
| 18 | 11/22 | 07:00 | 22 | 17 | 81 | 30.42 | SW | 3 | 0.00 |
| 19 | 11/22 | 06:00 | 23 | 17 | 78 | 30.40 | W | 4 | 0.00 |
| 20 | 11/22 | 05:00 | 24 | 16 | 74 | 30.39 | NW | 2 | 0.00 |
| 21 | 11/22 | 04:00 | 25 | 17 | 73 | 30.37 | NW | 4 | 0.00 |
| 22 | 11/22 | 03:00 | 23 | 16 | 76 | 30.36 | WSW | 4 | 0.00 |
| 23 | 11/22 | 02:00 | 23 | 15 | 74 | 30.35 | WNW | 3 | 0.00 |
| 24 | 11/22 | 01:00 | 24 | 16 | 72 | 30.34 | WSW | 9 | 0.00 |